sensor_id;sensor_type;location;lat;lon;timestamp;P1;durP1;ratioP1;P2;durP2;ratioP2
70796;SDS011;63842;52.144;5.360;2024-02-15T00:01:27;13.55;;;5.05;;
70796;SDS011;63842;52.144;5.360;2024-02-15T00:03:54;15.35;;;5.97;;
70796;SDS011;63842;52.144;5.360;2024-02-15T00:06:22;14.85;;;5.43;;
70796;SDS011;63842;52.144;5.360;2024-02-15T00:08:50;13.35;;;5.22;;
70796;SDS011;63842;52.144;5.360;2024-02-15T00:11:18;11.55;;;4.72;;
70796;SDS011;63842;52.144;5.360;2024-02-15T00:13:46;13.02;;;4.88;;
70796;SDS011;63842;52.144;5.360;2024-02-15T00:16:13;13.27;;;5.50;;
70796;SDS011;63842;52.144;5.360;2024-02-15T00:18:41;14.00;;;4.90;;
70796;SDS011;63842;52.144;5.360;2024-02-15T00:21:09;13.68;;;5.20;;
70796;SDS011;63842;52.144;5.360;2024-02-15T00:23:41;11.85;;;4.70;;
70796;SDS011;63842;52.144;5.360;2024-02-15T00:26:10;15.95;;;5.00;;
70796;SDS011;63842;52.144;5.360;2024-02-15T00:28:42;14.68;;;4.90;;
70796;SDS011;63842;52.144;5.360;2024-02-15T00:31:10;12.90;;;4.80;;
70796;SDS011;63842;52.144;5.360;2024-02-15T00:33:37;14.18;;;5.20;;
70796;SDS011;63842;52.144;5.360;2024-02-15T00:36:05;15.27;;;5.35;;
70796;SDS011;63842;52.144;5.360;2024-02-15T00:38:33;14.25;;;4.97;;
70796;SDS011;63842;52.144;5.360;2024-02-15T00:41:01;15.95;;;5.45;;
70796;SDS011;63842;52.144;5.360;2024-02-15T00:43:29;16.15;;;5.22;;
70796;SDS011;63842;52.144;5.360;2024-02-15T00:45:56;13.93;;;4.53;;
70796;SDS011;63842;52.144;5.360;2024-02-15T00:48:24;13.48;;;4.78;;
70796;SDS011;63842;52.144;5.360;2024-02-15T00:51:02;12.93;;;4.97;;
70796;SDS011;63842;52.144;5.360;2024-02-15T00:53:30;13.55;;;5.28;;
70796;SDS011;63842;52.144;5.360;2024-02-15T00:55:57;11.02;;;4.43;;
70796;SDS011;63842;52.144;5.360;2024-02-15T00:58:24;17.40;;;5.15;;
70796;SDS011;63842;52.144;5.360;2024-02-15T01:00:53;14.57;;;5.00;;
70796;SDS011;63842;52.144;5.360;2024-02-15T01:03:21;12.85;;;5.00;;
70796;SDS011;63842;52.144;5.360;2024-02-15T01:05:49;12.85;;;4.88;;
70796;SDS011;63842;52.144;5.360;2024-02-15T01:08:18;12.40;;;4.72;;
70796;SDS011;63842;52.144;5.360;2024-02-15T01:10:46;13.18;;;4.97;;
70796;SDS011;63842;52.144;5.360;2024-02-15T01:13:14;12.50;;;5.05;;
70796;SDS011;63842;52.144;5.360;2024-02-15T01:15:41;13.23;;;5.30;;
70796;SDS011;63842;52.144;5.360;2024-02-15T01:18:08;16.02;;;4.78;;
70796;SDS011;63842;52.144;5.360;2024-02-15T01:20:36;14.65;;;5.00;;
70796;SDS011;63842;52.144;5.360;2024-02-15T01:23:04;16.45;;;5.32;;
70796;SDS011;63842;52.144;5.360;2024-02-15T01:25:34;12.63;;;4.82;;
70796;SDS011;63842;52.144;5.360;2024-02-15T01:28:01;12.77;;;4.90;;
70796;SDS011;63842;52.144;5.360;2024-02-15T01:30:29;12.10;;;4.85;;
70796;SDS011;63842;52.144;5.360;2024-02-15T01:32:58;14.77;;;5.28;;
70796;SDS011;63842;52.144;5.360;2024-02-15T01:35:26;12.40;;;5.07;;
70796;SDS011;63842;52.144;5.360;2024-02-15T01:37:57;12.93;;;5.28;;
70796;SDS011;63842;52.144;5.360;2024-02-15T01:40:24;13.95;;;5.55;;
70796;SDS011;63842;52.144;5.360;2024-02-15T01:42:55;13.65;;;5.72;;
70796;SDS011;63842;52.144;5.360;2024-02-15T01:45:24;15.75;;;6.65;;
70796;SDS011;63842;52.144;5.360;2024-02-15T01:47:53;15.95;;;6.90;;
70796;SDS011;63842;52.144;5.360;2024-02-15T01:50:21;15.82;;;6.90;;
70796;SDS011;63842;52.144;5.360;2024-02-15T01:52:49;19.00;;;7.88;;
70796;SDS011;63842;52.144;5.360;2024-02-15T01:55:18;16.77;;;8.18;;
70796;SDS011;63842;52.144;5.360;2024-02-15T01:57:45;17.30;;;8.00;;
70796;SDS011;63842;52.144;5.360;2024-02-15T02:00:13;17.63;;;8.40;;
70796;SDS011;63842;52.144;5.360;2024-02-15T02:02:42;19.85;;;8.52;;
70796;SDS011;63842;52.144;5.360;2024-02-15T02:05:11;22.05;;;8.27;;
70796;SDS011;63842;52.144;5.360;2024-02-15T02:07:39;17.73;;;8.10;;
70796;SDS011;63842;52.144;5.360;2024-02-15T02:10:07;21.00;;;8.73;;
70796;SDS011;63842;52.144;5.360;2024-02-15T02:12:36;18.55;;;8.75;;
70796;SDS011;63842;52.144;5.360;2024-02-15T02:17:33;18.02;;;8.63;;
70796;SDS011;63842;52.144;5.360;2024-02-15T02:20:02;20.42;;;8.73;;
70796;SDS011;63842;52.144;5.360;2024-02-15T02:22:35;17.80;;;8.73;;
70796;SDS011;63842;52.144;5.360;2024-02-15T02:25:06;17.60;;;8.23;;
70796;SDS011;63842;52.144;5.360;2024-02-15T02:27:37;18.83;;;8.75;;
70796;SDS011;63842;52.144;5.360;2024-02-15T02:30:05;18.63;;;8.32;;
70796;SDS011;63842;52.144;5.360;2024-02-15T02:32:35;19.05;;;8.98;;
70796;SDS011;63842;52.144;5.360;2024-02-15T02:35:05;18.63;;;8.27;;
70796;SDS011;63842;52.144;5.360;2024-02-15T02:37:33;20.67;;;8.85;;
70796;SDS011;63842;52.144;5.360;2024-02-15T02:40:04;19.77;;;8.10;;
70796;SDS011;63842;52.144;5.360;2024-02-15T02:42:32;18.95;;;8.38;;
70796;SDS011;63842;52.144;5.360;2024-02-15T02:44:59;16.92;;;7.25;;
70796;SDS011;63842;52.144;5.360;2024-02-15T02:47:27;16.63;;;8.30;;
70796;SDS011;63842;52.144;5.360;2024-02-15T02:49:54;17.55;;;7.97;;
70796;SDS011;63842;52.144;5.360;2024-02-15T02:52:21;15.77;;;7.97;;
70796;SDS011;63842;52.144;5.360;2024-02-15T02:54:49;17.75;;;8.10;;
70796;SDS011;63842;52.144;5.360;2024-02-15T02:57:17;16.75;;;7.72;;
70796;SDS011;63842;52.144;5.360;2024-02-15T02:59:45;19.38;;;7.45;;
70796;SDS011;63842;52.144;5.360;2024-02-15T03:02:13;14.88;;;6.80;;
70796;SDS011;63842;52.144;5.360;2024-02-15T03:04:41;15.95;;;7.00;;
70796;SDS011;63842;52.144;5.360;2024-02-15T03:07:08;17.85;;;7.00;;
70796;SDS011;63842;52.144;5.360;2024-02-15T03:09:35;16.00;;;6.88;;
70796;SDS011;63842;52.144;5.360;2024-02-15T03:12:04;15.55;;;6.65;;
70796;SDS011;63842;52.144;5.360;2024-02-15T03:14:31;16.85;;;6.88;;
70796;SDS011;63842;52.144;5.360;2024-02-15T03:17:02;17.13;;;7.20;;
70796;SDS011;63842;52.144;5.360;2024-02-15T03:19:30;16.88;;;6.68;;
70796;SDS011;63842;52.144;5.360;2024-02-15T03:21:57;15.55;;;6.57;;
70796;SDS011;63842;52.144;5.360;2024-02-15T03:24:25;14.65;;;5.93;;
70796;SDS011;63842;52.144;5.360;2024-02-15T03:26:55;14.05;;;6.35;;
70796;SDS011;63842;52.144;5.360;2024-02-15T03:29:23;15.55;;;6.63;;
70796;SDS011;63842;52.144;5.360;2024-02-15T03:31:51;14.20;;;6.07;;
70796;SDS011;63842;52.144;5.360;2024-02-15T03:34:20;17.15;;;6.40;;
70796;SDS011;63842;52.144;5.360;2024-02-15T03:36:48;14.82;;;6.25;;
70796;SDS011;63842;52.144;5.360;2024-02-15T03:39:20;14.15;;;5.97;;
70796;SDS011;63842;52.144;5.360;2024-02-15T03:41:50;13.68;;;5.93;;
70796;SDS011;63842;52.144;5.360;2024-02-15T03:44:17;17.98;;;6.68;;
70796;SDS011;63842;52.144;5.360;2024-02-15T03:46:45;14.30;;;6.00;;
70796;SDS011;63842;52.144;5.360;2024-02-15T03:49:17;13.55;;;5.65;;
70796;SDS011;63842;52.144;5.360;2024-02-15T03:51:45;17.05;;;5.75;;
70796;SDS011;63842;52.144;5.360;2024-02-15T03:54:12;15.63;;;5.82;;
70796;SDS011;63842;52.144;5.360;2024-02-15T03:56:49;12.82;;;5.28;;
70796;SDS011;63842;52.144;5.360;2024-02-15T03:59:21;14.02;;;5.85;;
70796;SDS011;63842;52.144;5.360;2024-02-15T04:01:53;13.68;;;5.93;;
70796;SDS011;63842;52.144;5.360;2024-02-15T04:04:21;16.23;;;5.80;;
70796;SDS011;63842;52.144;5.360;2024-02-15T04:06:49;17.95;;;6.18;;
70796;SDS011;63842;52.144;5.360;2024-02-15T04:09:18;14.63;;;5.40;;
70796;SDS011;63842;52.144;5.360;2024-02-15T04:11:47;15.15;;;5.70;;
70796;SDS011;63842;52.144;5.360;2024-02-15T04:14:20;14.52;;;5.40;;
70796;SDS011;63842;52.144;5.360;2024-02-15T04:16:47;15.50;;;5.85;;
70796;SDS011;63842;52.144;5.360;2024-02-15T04:19:15;18.98;;;6.00;;
70796;SDS011;63842;52.144;5.360;2024-02-15T04:21:42;12.18;;;5.80;;
70796;SDS011;63842;52.144;5.360;2024-02-15T04:24:10;16.15;;;5.53;;
70796;SDS011;63842;52.144;5.360;2024-02-15T04:26:38;17.63;;;6.13;;
70796;SDS011;63842;52.144;5.360;2024-02-15T04:29:06;16.58;;;5.95;;
70796;SDS011;63842;52.144;5.360;2024-02-15T04:31:37;16.52;;;5.30;;
70796;SDS011;63842;52.144;5.360;2024-02-15T04:34:06;16.23;;;5.88;;
70796;SDS011;63842;52.144;5.360;2024-02-15T04:36:33;13.05;;;5.25;;
70796;SDS011;63842;52.144;5.360;2024-02-15T04:39:01;13.38;;;5.47;;
70796;SDS011;63842;52.144;5.360;2024-02-15T04:41:32;14.70;;;5.30;;
70796;SDS011;63842;52.144;5.360;2024-02-15T04:44:00;15.18;;;5.43;;
70796;SDS011;63842;52.144;5.360;2024-02-15T04:46:28;14.55;;;5.32;;
70796;SDS011;63842;52.144;5.360;2024-02-15T04:48:56;16.85;;;5.72;;
70796;SDS011;63842;52.144;5.360;2024-02-15T04:51:27;15.77;;;5.50;;
70796;SDS011;63842;52.144;5.360;2024-02-15T04:53:54;16.50;;;5.55;;
70796;SDS011;63842;52.144;5.360;2024-02-15T04:56:24;18.98;;;6.20;;
70796;SDS011;63842;52.144;5.360;2024-02-15T04:58:51;14.98;;;5.90;;
70796;SDS011;63842;52.144;5.360;2024-02-15T05:01:18;15.82;;;5.90;;
70796;SDS011;63842;52.144;5.360;2024-02-15T05:03:46;16.27;;;6.30;;
70796;SDS011;63842;52.144;5.360;2024-02-15T05:06:14;16.17;;;5.88;;
70796;SDS011;63842;52.144;5.360;2024-02-15T05:08:41;18.65;;;6.00;;
70796;SDS011;63842;52.144;5.360;2024-02-15T05:11:10;16.08;;;6.00;;
70796;SDS011;63842;52.144;5.360;2024-02-15T05:13:41;16.33;;;6.28;;
70796;SDS011;63842;52.144;5.360;2024-02-15T05:16:09;14.43;;;6.32;;
70796;SDS011;63842;52.144;5.360;2024-02-15T05:18:36;16.35;;;6.47;;
70796;SDS011;63842;52.144;5.360;2024-02-15T05:21:06;13.80;;;6.05;;
70796;SDS011;63842;52.144;5.360;2024-02-15T05:23:37;14.70;;;6.32;;
70796;SDS011;63842;52.144;5.360;2024-02-15T05:28:34;14.77;;;6.22;;
70796;SDS011;63842;52.144;5.360;2024-02-15T05:31:08;14.93;;;6.45;;
70796;SDS011;63842;52.144;5.360;2024-02-15T05:36:12;13.90;;;6.03;;
70796;SDS011;63842;52.144;5.360;2024-02-15T05:38:40;16.73;;;6.80;;
70796;SDS011;63842;52.144;5.360;2024-02-15T05:41:08;16.05;;;5.75;;
70796;SDS011;63842;52.144;5.360;2024-02-15T05:43:35;15.98;;;6.30;;
70796;SDS011;63842;52.144;5.360;2024-02-15T05:46:03;13.88;;;6.20;;
70796;SDS011;63842;52.144;5.360;2024-02-15T05:48:33;15.77;;;6.50;;
70796;SDS011;63842;52.144;5.360;2024-02-15T05:51:04;12.95;;;6.28;;
70796;SDS011;63842;52.144;5.360;2024-02-15T05:53:32;14.07;;;6.85;;
70796;SDS011;63842;52.144;5.360;2024-02-15T05:56:03;14.88;;;6.43;;
70796;SDS011;63842;52.144;5.360;2024-02-15T05:58:31;14.23;;;6.00;;
70796;SDS011;63842;52.144;5.360;2024-02-15T06:00:59;13.93;;;5.88;;
70796;SDS011;63842;52.144;5.360;2024-02-15T06:03:32;15.80;;;6.57;;
70796;SDS011;63842;52.144;5.360;2024-02-15T06:06:00;13.80;;;5.82;;
70796;SDS011;63842;52.144;5.360;2024-02-15T06:08:35;13.13;;;6.07;;
70796;SDS011;63842;52.144;5.360;2024-02-15T06:11:04;13.10;;;6.07;;
70796;SDS011;63842;52.144;5.360;2024-02-15T06:13:32;16.38;;;6.00;;
70796;SDS011;63842;52.144;5.360;2024-02-15T06:15:59;16.60;;;6.05;;
70796;SDS011;63842;52.144;5.360;2024-02-15T06:18:28;17.40;;;6.38;;
70796;SDS011;63842;52.144;5.360;2024-02-15T06:20:56;12.00;;;5.90;;
70796;SDS011;63842;52.144;5.360;2024-02-15T06:23:24;13.75;;;5.70;;
70796;SDS011;63842;52.144;5.360;2024-02-15T06:25:52;15.38;;;6.25;;
70796;SDS011;63842;52.144;5.360;2024-02-15T06:28:20;14.60;;;6.30;;
70796;SDS011;63842;52.144;5.360;2024-02-15T06:31:09;14.57;;;6.18;;
70796;SDS011;63842;52.144;5.360;2024-02-15T06:33:56;12.25;;;5.97;;
70796;SDS011;63842;52.144;5.360;2024-02-15T06:36:50;15.73;;;6.57;;
70796;SDS011;63842;52.144;5.360;2024-02-15T06:39:36;15.73;;;6.03;;
70796;SDS011;63842;52.144;5.360;2024-02-15T06:42:12;14.35;;;6.38;;
70796;SDS011;63842;52.144;5.360;2024-02-15T06:44:43;13.85;;;7.05;;
70796;SDS011;63842;52.144;5.360;2024-02-15T06:47:11;14.40;;;6.70;;
70796;SDS011;63842;52.144;5.360;2024-02-15T06:49:39;12.93;;;6.22;;
70796;SDS011;63842;52.144;5.360;2024-02-15T06:52:07;13.10;;;6.20;;
70796;SDS011;63842;52.144;5.360;2024-02-15T06:54:35;13.48;;;6.72;;
70796;SDS011;63842;52.144;5.360;2024-02-15T06:57:03;15.32;;;6.60;;
70796;SDS011;63842;52.144;5.360;2024-02-15T06:59:31;17.83;;;7.25;;
70796;SDS011;63842;52.144;5.360;2024-02-15T07:02:04;16.75;;;7.35;;
70796;SDS011;63842;52.144;5.360;2024-02-15T07:04:35;14.00;;;6.85;;
70796;SDS011;63842;52.144;5.360;2024-02-15T07:10:20;16.13;;;6.60;;
70796;SDS011;63842;52.144;5.360;2024-02-15T07:12:48;13.48;;;6.45;;
70796;SDS011;63842;52.144;5.360;2024-02-15T07:15:16;14.55;;;6.60;;
70796;SDS011;63842;52.144;5.360;2024-02-15T07:17:44;15.60;;;6.75;;
70796;SDS011;63842;52.144;5.360;2024-02-15T07:20:13;15.80;;;7.25;;
70796;SDS011;63842;52.144;5.360;2024-02-15T07:22:43;13.93;;;7.10;;
70796;SDS011;63842;52.144;5.360;2024-02-15T07:25:11;15.43;;;7.10;;
70796;SDS011;63842;52.144;5.360;2024-02-15T07:27:39;12.45;;;6.63;;
70796;SDS011;63842;52.144;5.360;2024-02-15T07:30:06;13.93;;;7.03;;
70796;SDS011;63842;52.144;5.360;2024-02-15T07:32:35;13.48;;;6.57;;
70796;SDS011;63842;52.144;5.360;2024-02-15T07:35:03;12.52;;;5.82;;
70796;SDS011;63842;52.144;5.360;2024-02-15T07:38:07;13.55;;;6.00;;
70796;SDS011;63842;52.144;5.360;2024-02-15T07:40:39;11.93;;;5.43;;
70796;SDS011;63842;52.144;5.360;2024-02-15T07:43:10;11.50;;;6.05;;
70796;SDS011;63842;52.144;5.360;2024-02-15T07:45:38;12.90;;;5.95;;
70796;SDS011;63842;52.144;5.360;2024-02-15T07:48:05;10.73;;;5.13;;
70796;SDS011;63842;52.144;5.360;2024-02-15T07:50:33;11.88;;;5.30;;
70796;SDS011;63842;52.144;5.360;2024-02-15T07:53:03;10.02;;;5.05;;
70796;SDS011;63842;52.144;5.360;2024-02-15T07:55:37;10.48;;;5.10;;
70796;SDS011;63842;52.144;5.360;2024-02-15T07:58:04;10.27;;;4.90;;
70796;SDS011;63842;52.144;5.360;2024-02-15T08:00:32;9.73;;;4.63;;
70796;SDS011;63842;52.144;5.360;2024-02-15T08:03:00;8.95;;;4.20;;
70796;SDS011;63842;52.144;5.360;2024-02-15T08:05:30;9.15;;;4.28;;
70796;SDS011;63842;52.144;5.360;2024-02-15T08:07:58;9.07;;;4.32;;
70796;SDS011;63842;52.144;5.360;2024-02-15T08:10:30;9.27;;;4.72;;
70796;SDS011;63842;52.144;5.360;2024-02-15T08:12:57;10.48;;;4.47;;
70796;SDS011;63842;52.144;5.360;2024-02-15T08:15:26;9.55;;;4.53;;
70796;SDS011;63842;52.144;5.360;2024-02-15T08:17:56;8.18;;;3.65;;
70796;SDS011;63842;52.144;5.360;2024-02-15T08:20:24;8.52;;;3.72;;
70796;SDS011;63842;52.144;5.360;2024-02-15T08:22:52;8.10;;;3.22;;
70796;SDS011;63842;52.144;5.360;2024-02-15T08:25:23;7.72;;;3.25;;
70796;SDS011;63842;52.144;5.360;2024-02-15T08:27:55;7.57;;;2.75;;
70796;SDS011;63842;52.144;5.360;2024-02-15T08:30:22;7.38;;;2.85;;
70796;SDS011;63842;52.144;5.360;2024-02-15T08:32:53;6.68;;;2.92;;
70796;SDS011;63842;52.144;5.360;2024-02-15T08:35:21;7.05;;;3.05;;
70796;SDS011;63842;52.144;5.360;2024-02-15T08:37:50;6.13;;;2.50;;
70796;SDS011;63842;52.144;5.360;2024-02-15T08:40:19;6.10;;;2.63;;
70796;SDS011;63842;52.144;5.360;2024-02-15T08:42:52;9.85;;;4.63;;
70796;SDS011;63842;52.144;5.360;2024-02-15T08:45:20;10.75;;;4.80;;
70796;SDS011;63842;52.144;5.360;2024-02-15T08:47:48;8.02;;;3.28;;
70796;SDS011;63842;52.144;5.360;2024-02-15T08:50:19;7.60;;;3.00;;
70796;SDS011;63842;52.144;5.360;2024-02-15T08:52:52;6.22;;;2.72;;
70796;SDS011;63842;52.144;5.360;2024-02-15T08:55:19;9.00;;;2.95;;
70796;SDS011;63842;52.144;5.360;2024-02-15T08:57:52;6.45;;;2.60;;
70796;SDS011;63842;52.144;5.360;2024-02-15T09:00:20;6.13;;;2.30;;
70796;SDS011;63842;52.144;5.360;2024-02-15T09:02:48;6.28;;;2.28;;
70796;SDS011;63842;52.144;5.360;2024-02-15T09:05:16;6.00;;;2.20;;
70796;SDS011;63842;52.144;5.360;2024-02-15T09:07:45;6.80;;;2.30;;
70796;SDS011;63842;52.144;5.360;2024-02-15T09:10:17;6.00;;;2.17;;
70796;SDS011;63842;52.144;5.360;2024-02-15T09:12:45;6.22;;;2.40;;
70796;SDS011;63842;52.144;5.360;2024-02-15T09:15:16;6.25;;;2.35;;
70796;SDS011;63842;52.144;5.360;2024-02-15T09:17:45;7.00;;;2.33;;
70796;SDS011;63842;52.144;5.360;2024-02-15T09:20:14;5.88;;;2.15;;
70796;SDS011;63842;52.144;5.360;2024-02-15T09:22:42;6.35;;;2.47;;
70796;SDS011;63842;52.144;5.360;2024-02-15T09:25:12;6.45;;;2.08;;
70796;SDS011;63842;52.144;5.360;2024-02-15T09:27:40;9.10;;;2.47;;
70796;SDS011;63842;52.144;5.360;2024-02-15T09:30:08;7.72;;;2.70;;
70796;SDS011;63842;52.144;5.360;2024-02-15T09:32:36;6.28;;;2.33;;
70796;SDS011;63842;52.144;5.360;2024-02-15T09:35:04;7.15;;;2.50;;
70796;SDS011;63842;52.144;5.360;2024-02-15T09:37:35;8.15;;;2.60;;
70796;SDS011;63842;52.144;5.360;2024-02-15T09:40:09;9.88;;;2.80;;
70796;SDS011;63842;52.144;5.360;2024-02-15T09:42:38;7.30;;;2.55;;
70796;SDS011;63842;52.144;5.360;2024-02-15T09:45:07;7.82;;;2.70;;
70796;SDS011;63842;52.144;5.360;2024-02-15T09:47:37;8.93;;;2.95;;
70796;SDS011;63842;52.144;5.360;2024-02-15T09:50:09;9.85;;;3.53;;
70796;SDS011;63842;52.144;5.360;2024-02-15T09:52:43;9.40;;;3.15;;
70796;SDS011;63842;52.144;5.360;2024-02-15T09:55:11;8.88;;;3.10;;
70796;SDS011;63842;52.144;5.360;2024-02-15T09:57:42;9.98;;;3.50;;
70796;SDS011;63842;52.144;5.360;2024-02-15T10:00:13;7.68;;;2.83;;
70796;SDS011;63842;52.144;5.360;2024-02-15T10:02:43;8.98;;;3.20;;
70796;SDS011;63842;52.144;5.360;2024-02-15T10:05:13;9.15;;;3.50;;
70796;SDS011;63842;52.144;5.360;2024-02-15T10:07:41;11.10;;;3.35;;
70796;SDS011;63842;52.144;5.360;2024-02-15T10:10:21;8.13;;;2.90;;
70796;SDS011;63842;52.144;5.360;2024-02-15T10:12:49;9.73;;;3.20;;
70796;SDS011;63842;52.144;5.360;2024-02-15T10:15:31;10.02;;;3.30;;
70796;SDS011;63842;52.144;5.360;2024-02-15T10:18:07;10.45;;;3.53;;
70796;SDS011;63842;52.144;5.360;2024-02-15T10:20:37;10.40;;;3.30;;
70796;SDS011;63842;52.144;5.360;2024-02-15T10:25:36;8.88;;;3.30;;
70796;SDS011;63842;52.144;5.360;2024-02-15T10:28:04;9.75;;;3.45;;
70796;SDS011;63842;52.144;5.360;2024-02-15T10:30:35;9.45;;;3.53;;
70796;SDS011;63842;52.144;5.360;2024-02-15T10:33:06;8.60;;;3.47;;
70796;SDS011;63842;52.144;5.360;2024-02-15T10:35:37;10.38;;;3.90;;
70796;SDS011;63842;52.144;5.360;2024-02-15T10:38:11;9.48;;;4.13;;
70796;SDS011;63842;52.144;5.360;2024-02-15T10:40:44;10.45;;;3.90;;
70796;SDS011;63842;52.144;5.360;2024-02-15T10:43:12;13.05;;;3.60;;
70796;SDS011;63842;52.144;5.360;2024-02-15T10:45:43;11.80;;;4.07;;
70796;SDS011;63842;52.144;5.360;2024-02-15T10:48:12;10.52;;;3.63;;
70796;SDS011;63842;52.144;5.360;2024-02-15T10:50:40;13.00;;;4.13;;
70796;SDS011;63842;52.144;5.360;2024-02-15T10:55:46;11.20;;;3.65;;
70796;SDS011;63842;52.144;5.360;2024-02-15T10:58:16;11.23;;;4.07;;
70796;SDS011;63842;52.144;5.360;2024-02-15T11:00:47;11.90;;;3.90;;
70796;SDS011;63842;52.144;5.360;2024-02-15T11:03:17;11.80;;;4.18;;
70796;SDS011;63842;52.144;5.360;2024-02-15T11:05:47;10.38;;;4.40;;
70796;SDS011;63842;52.144;5.360;2024-02-15T11:08:15;12.50;;;4.07;;
70796;SDS011;63842;52.144;5.360;2024-02-15T11:10:43;14.38;;;4.22;;
70796;SDS011;63842;52.144;5.360;2024-02-15T11:13:11;11.60;;;4.40;;
70796;SDS011;63842;52.144;5.360;2024-02-15T11:18:08;12.02;;;4.38;;
70796;SDS011;63842;52.144;5.360;2024-02-15T11:23:05;11.93;;;4.50;;
70796;SDS011;63842;52.144;5.360;2024-02-15T11:25:33;14.38;;;4.97;;
70796;SDS011;63842;52.144;5.360;2024-02-15T11:31:01;13.68;;;5.20;;
70796;SDS011;63842;52.144;5.360;2024-02-15T11:38:35;21.42;;;11.25;;
70796;SDS011;63842;52.144;5.360;2024-02-15T11:41:03;16.13;;;8.80;;
70796;SDS011;63842;52.144;5.360;2024-02-15T11:46:26;15.10;;;7.78;;
70796;SDS011;63842;52.144;5.360;2024-02-15T11:49:00;14.43;;;7.00;;
70796;SDS011;63842;52.144;5.360;2024-02-15T11:54:07;12.70;;;6.25;;
70796;SDS011;63842;52.144;5.360;2024-02-15T11:56:49;14.70;;;6.72;;
70796;SDS011;63842;52.144;5.360;2024-02-15T11:59:39;15.15;;;6.25;;
70796;SDS011;63842;52.144;5.360;2024-02-15T12:02:26;13.98;;;6.57;;
70796;SDS011;63842;52.144;5.360;2024-02-15T12:05:13;14.60;;;5.95;;
70796;SDS011;63842;52.144;5.360;2024-02-15T12:07:59;12.93;;;5.57;;
70796;SDS011;63842;52.144;5.360;2024-02-15T12:10:56;12.93;;;5.90;;
70796;SDS011;63842;52.144;5.360;2024-02-15T12:13:42;14.75;;;5.97;;
70796;SDS011;63842;52.144;5.360;2024-02-15T12:16:28;11.88;;;5.75;;
70796;SDS011;63842;52.144;5.360;2024-02-15T12:19:14;13.57;;;5.75;;
70796;SDS011;63842;52.144;5.360;2024-02-15T12:21:44;12.82;;;6.03;;
70796;SDS011;63842;52.144;5.360;2024-02-15T12:24:14;14.02;;;6.35;;
70796;SDS011;63842;52.144;5.360;2024-02-15T12:26:43;12.88;;;5.93;;
70796;SDS011;63842;52.144;5.360;2024-02-15T12:29:17;13.55;;;5.88;;
70796;SDS011;63842;52.144;5.360;2024-02-15T12:31:44;13.38;;;5.88;;
70796;SDS011;63842;52.144;5.360;2024-02-15T12:34:12;13.27;;;6.10;;
70796;SDS011;63842;52.144;5.360;2024-02-15T12:36:40;15.65;;;6.18;;
70796;SDS011;63842;52.144;5.360;2024-02-15T12:39:09;14.90;;;5.88;;
70796;SDS011;63842;52.144;5.360;2024-02-15T12:41:50;12.82;;;5.60;;
70796;SDS011;63842;52.144;5.360;2024-02-15T12:44:18;13.40;;;5.80;;
70796;SDS011;63842;52.144;5.360;2024-02-15T12:46:55;12.10;;;5.63;;
70796;SDS011;63842;52.144;5.360;2024-02-15T12:51:51;12.48;;;6.10;;
70796;SDS011;63842;52.144;5.360;2024-02-15T12:54:23;13.85;;;6.10;;
70796;SDS011;63842;52.144;5.360;2024-02-15T12:56:51;11.48;;;5.75;;
70796;SDS011;63842;52.144;5.360;2024-02-15T12:59:39;12.57;;;5.82;;
70796;SDS011;63842;52.144;5.360;2024-02-15T13:02:09;11.32;;;6.25;;
70796;SDS011;63842;52.144;5.360;2024-02-15T13:04:36;12.18;;;5.82;;
70796;SDS011;63842;52.144;5.360;2024-02-15T13:07:05;13.25;;;5.40;;
70796;SDS011;63842;52.144;5.360;2024-02-15T13:09:35;14.60;;;5.32;;
70796;SDS011;63842;52.144;5.360;2024-02-15T13:12:03;12.27;;;4.88;;
70796;SDS011;63842;52.144;5.360;2024-02-15T13:14:30;11.88;;;4.72;;
70796;SDS011;63842;52.144;5.360;2024-02-15T13:16:58;11.82;;;4.97;;
70796;SDS011;63842;52.144;5.360;2024-02-15T13:19:25;9.57;;;4.53;;
70796;SDS011;63842;52.144;5.360;2024-02-15T13:21:53;10.20;;;4.53;;
70796;SDS011;63842;52.144;5.360;2024-02-15T13:24:24;11.18;;;4.47;;
70796;SDS011;63842;52.144;5.360;2024-02-15T13:26:53;12.32;;;4.35;;
70796;SDS011;63842;52.144;5.360;2024-02-15T13:29:24;11.32;;;4.22;;
70796;SDS011;63842;52.144;5.360;2024-02-15T13:31:53;11.85;;;3.85;;
70796;SDS011;63842;52.144;5.360;2024-02-15T13:34:21;11.60;;;3.80;;
70796;SDS011;63842;52.144;5.360;2024-02-15T13:36:49;8.98;;;3.60;;
70796;SDS011;63842;52.144;5.360;2024-02-15T13:39:16;11.77;;;3.55;;
70796;SDS011;63842;52.144;5.360;2024-02-15T13:41:48;9.75;;;3.55;;
70796;SDS011;63842;52.144;5.360;2024-02-15T13:44:18;9.25;;;3.13;;
70796;SDS011;63842;52.144;5.360;2024-02-15T13:46:46;11.00;;;3.58;;
70796;SDS011;63842;52.144;5.360;2024-02-15T13:49:16;10.45;;;3.50;;
70796;SDS011;63842;52.144;5.360;2024-02-15T13:51:54;9.45;;;3.13;;
70796;SDS011;63842;52.144;5.360;2024-02-15T13:54:22;7.78;;;2.97;;
70796;SDS011;63842;52.144;5.360;2024-02-15T13:56:52;8.90;;;3.35;;
70796;SDS011;63842;52.144;5.360;2024-02-15T13:59:20;13.32;;;3.28;;
70796;SDS011;63842;52.144;5.360;2024-02-15T14:01:47;8.88;;;2.63;;
70796;SDS011;63842;52.144;5.360;2024-02-15T14:04:15;10.18;;;3.22;;
70796;SDS011;63842;52.144;5.360;2024-02-15T14:06:43;8.15;;;2.97;;
70796;SDS011;63842;52.144;5.360;2024-02-15T14:09:11;9.68;;;2.90;;
70796;SDS011;63842;52.144;5.360;2024-02-15T14:11:39;9.88;;;3.28;;
70796;SDS011;63842;52.144;5.360;2024-02-15T14:14:07;7.90;;;2.95;;
70796;SDS011;63842;52.144;5.360;2024-02-15T14:16:34;8.18;;;3.10;;
70796;SDS011;63842;52.144;5.360;2024-02-15T14:19:01;8.18;;;2.60;;
70796;SDS011;63842;52.144;5.360;2024-02-15T14:21:30;9.95;;;2.55;;
70796;SDS011;63842;52.144;5.360;2024-02-15T14:24:06;8.20;;;2.70;;
70796;SDS011;63842;52.144;5.360;2024-02-15T14:26:35;10.45;;;2.70;;
70796;SDS011;63842;52.144;5.360;2024-02-15T14:29:02;8.35;;;2.53;;
70796;SDS011;63842;52.144;5.360;2024-02-15T14:31:31;6.45;;;2.17;;
70796;SDS011;63842;52.144;5.360;2024-02-15T14:34:18;7.18;;;2.53;;
70796;SDS011;63842;52.144;5.360;2024-02-15T14:36:47;8.52;;;2.60;;
70796;SDS011;63842;52.144;5.360;2024-02-15T14:39:14;8.55;;;2.75;;
70796;SDS011;63842;52.144;5.360;2024-02-15T14:41:41;10.35;;;2.80;;
70796;SDS011;63842;52.144;5.360;2024-02-15T14:44:15;7.30;;;2.67;;
70796;SDS011;63842;52.144;5.360;2024-02-15T14:46:43;8.75;;;2.60;;
70796;SDS011;63842;52.144;5.360;2024-02-15T14:49:10;6.68;;;2.30;;
70796;SDS011;63842;52.144;5.360;2024-02-15T14:51:38;9.45;;;3.00;;
70796;SDS011;63842;52.144;5.360;2024-02-15T14:54:05;10.80;;;2.80;;
70796;SDS011;63842;52.144;5.360;2024-02-15T14:56:33;8.50;;;2.55;;
70796;SDS011;63842;52.144;5.360;2024-02-15T14:59:04;7.47;;;2.55;;
70796;SDS011;63842;52.144;5.360;2024-02-15T15:01:31;9.27;;;2.90;;
70796;SDS011;63842;52.144;5.360;2024-02-15T15:03:59;8.88;;;2.80;;
70796;SDS011;63842;52.144;5.360;2024-02-15T15:06:32;9.32;;;2.90;;
70796;SDS011;63842;52.144;5.360;2024-02-15T15:09:18;7.57;;;2.83;;
70796;SDS011;63842;52.144;5.360;2024-02-15T15:12:04;8.48;;;2.75;;
70796;SDS011;63842;52.144;5.360;2024-02-15T15:14:50;10.90;;;2.70;;
70796;SDS011;63842;52.144;5.360;2024-02-15T15:17:17;8.75;;;3.10;;
70796;SDS011;63842;52.144;5.360;2024-02-15T15:19:47;8.00;;;3.05;;
70796;SDS011;63842;52.144;5.360;2024-02-15T15:22:14;14.10;;;4.05;;
70796;SDS011;63842;52.144;5.360;2024-02-15T15:24:46;10.85;;;3.25;;
70796;SDS011;63842;52.144;5.360;2024-02-15T15:27:13;10.73;;;3.75;;
70796;SDS011;63842;52.144;5.360;2024-02-15T15:29:41;11.30;;;3.92;;
70796;SDS011;63842;52.144;5.360;2024-02-15T15:32:09;10.55;;;3.35;;